createdAt,value
2023-04-05T00:02:18.694Z,100449.03
2023-04-05T00:04:50.604Z,100448.34
2023-04-05T00:07:19.137Z,100445.00
2023-04-05T00:09:46.500Z,100441.66
2023-04-05T00:12:13.631Z,100439.97
2023-04-05T00:14:40.781Z,100437.63
2023-04-05T00:17:09.491Z,100433.31
2023-04-05T00:19:39.205Z,100417.72
2023-04-05T00:22:06.284Z,100426.63
2023-04-05T00:24:33.984Z,100422.31
2023-04-05T00:27:01.272Z,100426.88
2023-04-05T00:29:28.548Z,100417.28
2023-04-05T00:31:56.502Z,100419.22
2023-04-05T00:34:23.614Z,100423.78
2023-04-05T00:36:50.876Z,100419.50
2023-04-05T00:39:17.836Z,100423.06
2023-04-05T00:41:46.897Z,100425.13
2023-04-05T00:44:15.525Z,100416.53
2023-04-05T00:46:42.536Z,100414.00
2023-04-05T00:49:10.252Z,100408.16
2023-04-05T00:51:38.076Z,100416.22
2023-04-05T00:54:06.245Z,100406.75
2023-04-05T00:56:33.268Z,100409.38
2023-04-05T00:59:00.669Z,100405.91
2023-04-05T01:01:29.001Z,100400.91
2023-04-05T01:04:03.464Z,100397.53
2023-04-05T01:07:04.643Z,100393.38
2023-04-05T01:09:59.788Z,100397.13
2023-04-05T01:16:57.975Z,100393.31
2023-04-05T01:19:29.848Z,100387.31
2023-04-05T01:22:26.461Z,100379.69
2023-04-05T01:25:47.036Z,100379.00
2023-04-05T01:29:12.193Z,100370.34
2023-04-05T01:31:48.605Z,100376.59
2023-04-05T01:34:49.969Z,100365.50
2023-04-05T01:37:22.858Z,100369.06
2023-04-05T01:39:50.923Z,100376.41
2023-04-05T01:42:25.352Z,100372.94
2023-04-05T01:44:57.414Z,100372.19
2023-04-05T01:47:24.795Z,100368.88
2023-04-05T01:49:51.798Z,100370.66
2023-04-05T01:52:18.875Z,100367.34
2023-04-05T01:54:45.905Z,100360.41
2023-04-05T01:57:12.848Z,100364.22
2023-04-05T01:59:39.771Z,100376.44
2023-04-05T02:02:06.748Z,100371.44
2023-04-05T02:04:33.832Z,100363.66
2023-04-05T02:07:00.970Z,100363.66
2023-04-05T02:09:28.014Z,100366.41
2023-04-05T02:11:55.262Z,100366.41
2023-04-05T02:14:22.384Z,100359.47
2023-04-05T02:16:49.344Z,100354.34
2023-04-05T02:19:22.894Z,100363.22
2023-04-05T02:21:53.578Z,100357.09
2023-04-05T02:24:21.687Z,100350.16
2023-04-05T02:26:48.679Z,100353.75
2023-04-05T02:29:15.658Z,100354.69
2023-04-05T02:31:42.609Z,100354.97
2023-04-05T02:34:11.525Z,100353.31
2023-04-05T02:36:38.490Z,100351.59
2023-04-05T02:39:05.466Z,100354.38
2023-04-05T02:41:32.474Z,100351.88
2023-04-05T02:44:00.018Z,100350.19
2023-04-05T02:46:30.634Z,100354.78
2023-04-05T02:48:57.979Z,100352.25
2023-04-05T02:51:27.908Z,100347.94
2023-04-05T02:53:54.972Z,100340.88
2023-04-05T02:56:22.108Z,100348.06
2023-04-05T02:58:49.526Z,100358.47
2023-04-05T03:01:22.603Z,100351.53
2023-04-05T03:03:50.182Z,100350.69
2023-04-05T03:06:17.432Z,100347.38
2023-04-05T03:08:49.208Z,100342.94
2023-04-05T03:11:20.905Z,100344.75
2023-04-05T03:13:51.717Z,100344.75
2023-04-05T03:16:34.331Z,100335.13
2023-04-05T03:19:07.894Z,100335.28
2023-04-05T03:21:37.892Z,100337.06
2023-04-05T03:24:13.076Z,100335.41
2023-04-05T03:26:45.540Z,100338.03
2023-04-05T03:29:13.648Z,100325.00
2023-04-05T03:31:40.995Z,100335.53
2023-04-05T03:34:09.581Z,100335.53
2023-04-05T03:36:45.930Z,100333.03
2023-04-05T03:39:28.220Z,100337.34
2023-04-05T03:41:56.717Z,100331.34
2023-04-05T03:44:23.679Z,100331.25
2023-04-05T03:46:50.883Z,100336.50
2023-04-05T03:49:19.808Z,100330.41
2023-04-05T03:51:47.032Z,100337.34
2023-04-05T03:54:14.548Z,100332.06
2023-04-05T03:56:42.994Z,100327.63
2023-04-05T03:59:14.566Z,100331.25
2023-04-05T04:01:42.225Z,100326.81
2023-04-05T04:04:09.168Z,100326.06
2023-04-05T04:06:37.195Z,100331.34
2023-04-05T04:09:05.761Z,100323.56
2023-04-05T04:11:32.880Z,100326.34
2023-04-05T04:14:03.111Z,100329.94
2023-04-05T04:17:08.460Z,100331.97
2023-04-05T04:19:50.970Z,100333.06
2023-04-05T04:22:45.815Z,100336.88
2023-04-05T04:25:39.058Z,100338.00
2023-04-05T04:28:27.962Z,100337.38
2023-04-05T04:31:17.001Z,100336.81
2023-04-05T04:34:10.074Z,100330.94
2023-04-05T04:37:01.433Z,100334.81
2023-04-05T04:39:35.534Z,100333.34
2023-04-05T04:42:23.798Z,100335.50
2023-04-05T04:45:18.565Z,100325.38
2023-04-05T04:47:57.638Z,100337.09
2023-04-05T04:50:46.526Z,100329.56
2023-04-05T04:53:17.254Z,100339.50
2023-04-05T04:55:44.500Z,100336.38
2023-04-05T04:58:13.234Z,100335.91
2023-04-05T05:00:44.336Z,100331.75
2023-04-05T05:03:12.215Z,100329.59
2023-04-05T05:05:43.833Z,100330.06
2023-04-05T05:08:10.933Z,100332.94
2023-04-05T05:10:39.920Z,100341.06
2023-04-05T05:13:07.036Z,100343.09
2023-04-05T05:15:34.081Z,100346.78
2023-04-05T05:18:01.249Z,100347.88
2023-04-05T05:20:28.563Z,100345.38
2023-04-05T05:22:56.192Z,100345.59
2023-04-05T05:25:23.117Z,100347.50
2023-04-05T05:27:53.363Z,100342.47
2023-04-05T05:30:23.173Z,100347.00
2023-04-05T05:32:50.621Z,100346.31
2023-04-05T05:35:17.696Z,100341.25
2023-04-05T05:37:44.759Z,100343.19
2023-04-05T05:40:13.255Z,100344.13
2023-04-05T05:42:40.548Z,100339.00
2023-04-05T05:45:08.710Z,100348.78
2023-04-05T05:47:36.133Z,100351.53
2023-04-05T05:50:03.825Z,100344.59
2023-04-05T05:52:31.089Z,100350.81
2023-04-05T05:54:58.099Z,100342.22
2023-04-05T05:57:25.016Z,100354.41
2023-04-05T05:59:51.977Z,100345.78
2023-04-05T06:02:19.314Z,100355.44
2023-04-05T06:04:46.284Z,100349.38
2023-04-05T06:07:13.706Z,100350.19
2023-04-05T06:09:40.702Z,100358.09
2023-04-05T06:12:07.768Z,100355.44
2023-04-05T06:14:34.723Z,100357.13
2023-04-05T06:17:01.673Z,100364.91
2023-04-05T06:19:28.629Z,100360.50
2023-04-05T06:21:55.588Z,100358.56
2023-04-05T06:24:22.581Z,100362.75
2023-04-05T06:26:51.851Z,100363.50
2023-04-05T06:29:18.865Z,100364.19
2023-04-05T06:31:47.861Z,100360.41
2023-04-05T06:34:14.925Z,100364.56
2023-04-05T06:36:42.674Z,100363.28
2023-04-05T06:39:09.706Z,100366.38
2023-04-05T06:41:36.757Z,100365.91
2023-04-05T06:44:03.691Z,100368.16
2023-04-05T06:46:30.727Z,100361.47
2023-04-05T06:48:58.866Z,100367.09
2023-04-05T06:51:26.639Z,100364.69
2023-04-05T06:53:53.593Z,100364.97
2023-04-05T06:56:20.528Z,100363.38
2023-04-05T06:58:47.837Z,100366.25
2023-04-05T07:01:14.875Z,100368.88
2023-04-05T07:03:41.817Z,100360.22
2023-04-05T07:06:09.701Z,100366.31
2023-04-05T07:08:36.632Z,100367.25
2023-04-05T07:11:03.742Z,100365.41
2023-04-05T07:13:30.814Z,100365.25
2023-04-05T07:16:03.255Z,100363.41
2023-04-05T07:18:30.924Z,100370.16
2023-04-05T07:21:03.925Z,100363.03
2023-04-05T07:23:31.343Z,100361.88
2023-04-05T07:26:05.824Z,100358.31
2023-04-05T07:28:35.363Z,100359.09
2023-04-05T07:31:03.946Z,100358.06
2023-04-05T07:33:31.129Z,100361.44
2023-04-05T07:35:58.384Z,100366.50
2023-04-05T07:38:27.510Z,100371.56
2023-04-05T07:40:54.475Z,100365.19
2023-04-05T07:43:21.637Z,100363.28
2023-04-05T07:45:48.717Z,100363.88
2023-04-05T07:48:15.842Z,100364.19
2023-04-05T07:50:47.510Z,100370.03
2023-04-05T07:53:14.995Z,100361.81
2023-04-05T07:55:43.021Z,100370.59
2023-04-05T07:58:10.935Z,100372.28
2023-04-05T08:00:38.611Z,100369.47
2023-04-05T08:03:06.901Z,100370.31
2023-04-05T08:05:33.872Z,100365.00
2023-04-05T08:08:00.951Z,100365.81
2023-04-05T08:10:27.945Z,100363.13
2023-04-05T08:12:55.042Z,100365.78
2023-04-05T08:15:22.018Z,100369.22
2023-04-05T08:17:49.145Z,100377.13
2023-04-05T08:20:16.159Z,100370.28
2023-04-05T08:22:43.247Z,100369.41
2023-04-05T08:25:11.825Z,100369.22
2023-04-05T08:27:38.746Z,100369.16
2023-04-05T08:30:06.788Z,100369.13
2023-04-05T08:32:35.328Z,100368.91
2023-04-05T08:35:02.477Z,100379.28
2023-04-05T08:37:29.487Z,100369.44
2023-04-05T08:39:56.431Z,100362.59
2023-04-05T08:42:47.572Z,100364.66
2023-04-05T08:45:17.977Z,100368.81
2023-04-05T08:47:46.457Z,100361.25
2023-04-05T08:50:14.250Z,100358.53
2023-04-05T08:52:48.594Z,100353.00
2023-04-05T08:55:16.773Z,100363.50
2023-04-05T08:57:49.831Z,100356.44
2023-04-05T09:00:18.069Z,100357.84
2023-04-05T09:02:51.065Z,100355.63
2023-04-05T09:05:21.193Z,100358.03
2023-04-05T09:07:49.094Z,100356.09
2023-04-05T09:10:18.686Z,100362.97
2023-04-05T09:12:45.847Z,100361.53
2023-04-05T09:15:14.083Z,100354.13
2023-04-05T09:17:43.387Z,100358.31
2023-04-05T09:20:10.379Z,100361.34
2023-04-05T09:22:47.228Z,100357.41
2023-04-05T09:25:43.761Z,100353.81
2023-04-05T09:28:10.900Z,100363.13
2023-04-05T09:30:38.409Z,100354.69
2023-04-05T09:33:10.385Z,100352.19
2023-04-05T09:35:37.959Z,100344.69
2023-04-05T09:38:05.440Z,100342.69
2023-04-05T09:40:48.535Z,100340.88
2023-04-05T09:43:41.630Z,100341.53
2023-04-05T09:46:34.072Z,100336.75
2023-04-05T09:49:02.339Z,100329.94
2023-04-05T09:51:37.772Z,100334.41
2023-04-05T09:54:11.226Z,100331.91
2023-04-05T09:56:41.936Z,100330.06
2023-04-05T09:59:12.343Z,100327.88
2023-04-05T10:01:44.425Z,100327.50
2023-04-05T10:04:11.546Z,100327.66
2023-04-05T10:06:43.026Z,100324.81
2023-04-05T10:09:12.013Z,100327.44
2023-04-05T10:11:39.438Z,100321.25
2023-04-05T10:14:08.379Z,100328.22
2023-04-05T10:17:16.170Z,100322.00
2023-04-05T10:20:11.580Z,100320.31
2023-04-05T10:23:12.384Z,100321.59
2023-04-05T10:26:04.623Z,100314.91
2023-04-05T10:28:37.448Z,100313.91
2023-04-05T10:31:14.196Z,100315.56
2023-04-05T10:33:47.471Z,100312.19
2023-04-05T10:36:45.410Z,100312.06
2023-04-05T10:39:45.780Z,100313.72
2023-04-05T10:42:28.154Z,100314.16
2023-04-05T10:45:06.780Z,100316.13
2023-04-05T10:47:42.653Z,100304.94
2023-04-05T10:50:20.178Z,100311.22
2023-04-05T10:52:48.148Z,100301.00
2023-04-05T10:55:16.924Z,100300.78
2023-04-05T10:57:46.189Z,100296.03
2023-04-05T11:00:16.322Z,100294.13
2023-04-05T11:02:44.787Z,100298.53
2023-04-05T11:05:34.512Z,100293.13
2023-04-05T11:08:11.082Z,100290.47
2023-04-05T11:10:39.488Z,100291.75
2023-04-05T11:13:08.814Z,100289.28
2023-04-05T11:15:36.536Z,100286.78
2023-04-05T11:18:18.065Z,100284.59
2023-04-05T11:21:06.408Z,100280.94
2023-04-05T11:23:53.358Z,100284.91
2023-04-05T11:26:20.412Z,100275.88
2023-04-05T11:28:47.380Z,100281.81
2023-04-05T11:31:18.329Z,100277.94
2023-04-05T11:33:52.180Z,100261.28
2023-04-05T11:36:36.815Z,100266.22
2023-04-05T11:39:27.691Z,100263.56
2023-04-05T11:42:16.644Z,100262.53
2023-04-05T11:44:49.399Z,100257.16
2023-04-05T11:47:23.283Z,100253.03
2023-04-05T11:49:51.731Z,100258.75
2023-04-05T11:52:21.686Z,100255.84
2023-04-05T11:54:49.903Z,100255.59
2023-04-05T11:57:24.057Z,100249.75
2023-04-05T11:59:53.126Z,100260.69
2023-04-05T12:02:21.516Z,100248.09
2023-04-05T12:04:58.345Z,100254.66
2023-04-05T12:07:29.461Z,100250.16
2023-04-05T12:10:08.770Z,100252.44
2023-04-05T12:12:40.505Z,100248.22
2023-04-05T12:15:11.604Z,100251.06
2023-04-05T12:17:42.774Z,100242.63
2023-04-05T12:20:12.681Z,100236.91
2023-04-05T12:22:42.540Z,100243.84
2023-04-05T12:25:10.961Z,100230.91
2023-04-05T12:27:39.077Z,100227.72
2023-04-05T12:30:16.993Z,100231.81
2023-04-05T12:32:51.416Z,100219.03
2023-04-05T12:35:31.788Z,100221.31
2023-04-05T12:38:00.894Z,100218.88
2023-04-05T12:40:30.115Z,100214.63
2023-04-05T12:43:09.380Z,100211.25
2023-04-05T12:45:40.505Z,100206.84
2023-04-05T12:48:11.936Z,100202.22
2023-04-05T12:50:44.878Z,100211.72
2023-04-05T12:53:23.358Z,100197.66
2023-04-05T12:55:55.523Z,100195.31
2023-04-05T12:58:42.886Z,100197.97
2023-04-05T13:01:10.636Z,100199.88
2023-04-05T13:03:37.851Z,100204.00
2023-04-05T13:06:04.797Z,100201.94
2023-04-05T13:08:31.743Z,100193.03
2023-04-05T13:10:58.666Z,100197.09
2023-04-05T13:13:25.730Z,100192.53
2023-04-05T13:15:52.881Z,100184.19
2023-04-05T13:18:20.519Z,100177.47
2023-04-05T13:20:47.539Z,100182.19
2023-04-05T13:23:14.496Z,100169.50
2023-04-05T13:25:45.223Z,100169.63
2023-04-05T13:28:12.265Z,100166.94
2023-04-05T13:30:39.282Z,100167.72
2023-04-05T13:33:06.699Z,100160.28
2023-04-05T13:35:34.035Z,100160.78
2023-04-05T13:38:04.341Z,100153.97
2023-04-05T13:40:32.541Z,100149.19
2023-04-05T13:42:59.780Z,100151.03
2023-04-05T13:45:27.975Z,100140.88
2023-04-05T13:47:55.639Z,100139.31
2023-04-05T13:50:22.733Z,100139.88
2023-04-05T13:52:49.712Z,100130.28
2023-04-05T13:55:16.777Z,100135.31
2023-04-05T13:57:43.779Z,100141.69
2023-04-05T14:00:11.634Z,100128.63
2023-04-05T14:02:39.154Z,100136.94
2023-04-05T14:05:08.483Z,100131.50
2023-04-05T14:07:35.950Z,100126.09
2023-04-05T14:10:03.219Z,100129.09
2023-04-05T14:12:31.471Z,100124.53
2023-04-05T14:15:00.096Z,100124.69
2023-04-05T14:17:27.149Z,100133.38
2023-04-05T14:19:54.122Z,100131.78
2023-04-05T14:22:21.551Z,100129.31
2023-04-05T14:24:48.657Z,100124.66
2023-04-05T14:27:15.778Z,100130.44
2023-04-05T14:29:44.079Z,100126.94
2023-04-05T14:32:11.087Z,100117.03
2023-04-05T14:34:38.198Z,100116.06
2023-04-05T14:37:06.589Z,100106.94
2023-04-05T14:39:34.115Z,100111.97
2023-04-05T14:42:01.406Z,100110.09
2023-04-05T14:44:28.434Z,100102.00
2023-04-05T14:46:55.419Z,100105.44
2023-04-05T14:49:22.414Z,100098.75
2023-04-05T14:51:49.475Z,100094.50
2023-04-05T14:54:16.858Z,100101.53
2023-04-05T14:56:44.048Z,100091.50
2023-04-05T14:59:11.107Z,100094.81
2023-04-05T15:01:38.234Z,100093.28
2023-04-05T15:04:07.461Z,100094.19
2023-04-05T15:06:35.724Z,100092.56
2023-04-05T15:09:02.654Z,100089.41
2023-04-05T15:11:29.697Z,100092.63
2023-04-05T15:13:56.624Z,100088.78
2023-04-05T15:16:25.049Z,100089.09
2023-04-05T15:18:52.171Z,100090.66
2023-04-05T15:21:19.991Z,100088.31
2023-04-05T15:23:46.960Z,100079.78
2023-04-05T15:26:13.898Z,100082.16
2023-04-05T15:28:41.104Z,100079.59
2023-04-05T15:31:08.183Z,100073.28
2023-04-05T15:33:35.229Z,100078.06
2023-04-05T15:36:02.268Z,100077.38
2023-04-05T15:38:29.222Z,100076.91
2023-04-05T15:40:57.790Z,100072.28
2023-04-05T15:43:24.772Z,100071.16
2023-04-05T15:45:51.773Z,100072.13
2023-04-05T15:48:18.736Z,100067.16
2023-04-05T15:50:45.986Z,100071.66
2023-04-05T15:53:13.190Z,100066.41
2023-04-05T15:55:40.130Z,100072.81
2023-04-05T15:58:07.406Z,100071.91
2023-04-05T16:00:34.565Z,100078.03
2023-04-05T16:03:02.190Z,100074.78
2023-04-05T16:05:29.279Z,100073.22
2023-04-05T16:07:56.295Z,100072.81
2023-04-05T16:10:23.361Z,100069.75
2023-04-05T16:12:52.435Z,100067.06
2023-04-05T16:15:19.545Z,100070.38
2023-04-05T16:17:46.765Z,100062.78
2023-04-05T16:20:13.863Z,100060.16
2023-04-05T16:22:41.426Z,100065.59
2023-04-05T16:25:08.432Z,100064.81
2023-04-05T16:27:36.940Z,100061.38
2023-04-05T16:30:04.271Z,100062.03
2023-04-05T16:32:31.310Z,100065.38
2023-04-05T16:34:58.355Z,100072.06
2023-04-05T16:37:25.580Z,100065.88
2023-04-05T16:39:52.610Z,100063.25
2023-04-05T16:42:19.635Z,100062.69
2023-04-05T16:44:46.595Z,100056.34
2023-04-05T16:47:13.540Z,100063.59
2023-04-05T16:49:40.531Z,100063.91
2023-04-05T16:52:07.461Z,100063.69
2023-04-05T16:54:34.403Z,100068.72
2023-04-05T16:57:02.150Z,100066.88
2023-04-05T16:59:29.239Z,100070.88
2023-04-05T17:01:56.190Z,100073.97
2023-04-05T17:04:23.212Z,100067.81
2023-04-05T17:06:51.473Z,100063.06
2023-04-05T17:09:19.432Z,100061.03
2023-04-05T17:11:46.809Z,100067.00
2023-04-05T17:14:13.808Z,100064.31
2023-04-05T17:16:40.904Z,100068.59
2023-04-05T17:19:07.868Z,100062.19
2023-04-05T17:21:35.511Z,100060.13
2023-04-05T17:24:03.062Z,100058.03
2023-04-05T17:26:30.258Z,100061.50
2023-04-05T17:28:57.281Z,100054.03
2023-04-05T17:31:24.809Z,100060.63
2023-04-05T17:33:51.792Z,100060.38
2023-04-05T17:36:18.843Z,100051.06
2023-04-05T17:38:46.067Z,100054.09
2023-04-05T17:41:13.050Z,100049.50
2023-04-05T17:43:40.320Z,100058.09
2023-04-05T17:46:09.269Z,100055.13
2023-04-05T17:48:36.413Z,100058.31
2023-04-05T17:51:09.367Z,100057.03
2023-04-05T17:53:36.412Z,100061.47
2023-04-05T17:56:03.673Z,100054.97
2023-04-05T17:58:32.223Z,100059.81
2023-04-05T18:00:59.662Z,100053.31
2023-04-05T18:03:27.525Z,100059.38
2023-04-05T18:05:55.829Z,100059.28
2023-04-05T18:08:23.808Z,100055.81
2023-04-05T18:10:57.653Z,100059.28
2023-04-05T18:13:26.302Z,100065.19
2023-04-05T18:16:00.045Z,100062.03
2023-04-05T18:18:28.465Z,100065.94
2023-04-05T18:20:56.416Z,100064.44
2023-04-05T18:23:24.861Z,100071.59
2023-04-05T18:25:53.628Z,100076.72
2023-04-05T18:28:23.248Z,100077.34
2023-04-05T18:30:51.650Z,100080.25
2023-04-05T18:33:18.872Z,100077.66
2023-04-05T18:35:50.435Z,100081.88
2023-04-05T18:38:17.720Z,100089.75
2023-04-05T18:40:44.778Z,100082.47
2023-04-05T18:43:11.847Z,100088.50
2023-04-05T18:45:39.440Z,100091.38
2023-04-05T18:48:06.540Z,100092.44
2023-04-05T18:50:34.409Z,100090.66
2023-04-05T18:53:01.655Z,100088.19
2023-04-05T18:55:28.592Z,100096.03
2023-04-05T18:57:55.551Z,100096.75
2023-04-05T19:00:22.496Z,100096.44
2023-04-05T19:02:49.451Z,100101.44
2023-04-05T19:05:16.503Z,100098.44
2023-04-05T19:07:43.779Z,100100.78
2023-04-05T19:10:11.784Z,100105.00
2023-04-05T19:12:38.748Z,100106.50
2023-04-05T19:15:07.120Z,100097.19
2023-04-05T19:17:34.181Z,100106.69
2023-04-05T19:20:01.149Z,100108.88
2023-04-05T19:22:28.164Z,100108.34
2023-04-05T19:24:55.331Z,100105.22
2023-04-05T19:27:22.283Z,100108.22
2023-04-05T19:29:49.350Z,100112.22
2023-04-05T19:32:16.293Z,100105.75
2023-04-05T19:34:43.266Z,100116.88
2023-04-05T19:37:10.330Z,100114.91
2023-04-05T19:39:37.365Z,100118.91
2023-04-05T19:42:05.909Z,100121.22
2023-04-05T19:44:57.911Z,100121.91
2023-04-05T19:47:26.293Z,100118.06
2023-04-05T19:49:56.964Z,100115.06
2023-04-05T19:52:48.124Z,100118.56
2023-04-05T19:55:41.568Z,100112.25
2023-04-05T19:58:10.363Z,100112.59
2023-04-05T20:00:56.544Z,100107.13
2023-04-05T20:03:32.791Z,100110.25
2023-04-05T20:06:07.921Z,100107.94
2023-04-05T20:08:37.579Z,100111.09
2023-04-05T20:11:16.008Z,100114.06
2023-04-05T20:13:55.091Z,100113.41
2023-04-05T20:16:34.119Z,100113.75
2023-04-05T20:19:11.347Z,100115.88
2023-04-05T20:21:38.784Z,100116.22
2023-04-05T20:24:09.683Z,100113.38
2023-04-05T20:26:36.676Z,100113.34
2023-04-05T20:29:08.388Z,100107.84
2023-04-05T20:31:40.078Z,100116.78
2023-04-05T20:34:21.797Z,100114.75
2023-04-05T20:36:52.143Z,100121.69
2023-04-05T20:39:19.578Z,100118.19
2023-04-05T20:41:47.137Z,100115.34
2023-04-05T20:44:27.478Z,100107.34
2023-04-05T20:46:57.114Z,100110.63
2023-04-05T20:49:25.909Z,100105.63
2023-04-05T20:51:55.721Z,100107.63
2023-04-05T20:54:23.021Z,100103.44
2023-04-05T20:56:49.949Z,100108.91
2023-04-05T20:59:17.041Z,100108.25
2023-04-05T21:01:46.960Z,100102.25
2023-04-05T21:04:14.484Z,100100.59
2023-04-05T21:06:42.252Z,100098.94
2023-04-05T21:09:09.843Z,100101.59
2023-04-05T21:11:37.308Z,100103.59
2023-04-05T21:14:04.502Z,100101.91
2023-04-05T21:16:31.683Z,100100.94
2023-04-05T21:18:58.774Z,100096.72
2023-04-05T21:21:26.143Z,100098.53
2023-04-05T21:23:53.125Z,100097.88
2023-04-05T21:26:20.112Z,100098.88
2023-04-05T21:28:47.036Z,100091.91
2023-04-05T21:31:13.984Z,100095.56
2023-04-05T21:33:41.564Z,100093.22
2023-04-05T21:36:08.701Z,100096.69
2023-04-05T21:38:35.843Z,100091.72
2023-04-05T21:41:02.823Z,100098.13
2023-04-05T21:43:29.820Z,100094.53
2023-04-05T21:45:56.861Z,100096.19
2023-04-05T21:48:24.702Z,100091.88
2023-04-05T21:50:51.896Z,100103.44
2023-04-05T21:53:18.934Z,100102.78
2023-04-05T21:55:46.172Z,100095.81
2023-04-05T21:58:13.207Z,100099.75
2023-04-05T22:00:40.212Z,100099.91
2023-04-05T22:03:07.322Z,100097.44
2023-04-05T22:05:38.349Z,100093.28
2023-04-05T22:08:07.097Z,100091.75
2023-04-05T22:10:35.288Z,100105.31
2023-04-05T22:13:02.307Z,100098.38
2023-04-05T22:15:29.318Z,100097.84
2023-04-05T22:17:56.380Z,100098.81
2023-04-05T22:20:23.422Z,100098.28
2023-04-05T22:22:50.358Z,100099.28
2023-04-05T22:25:17.366Z,100102.38
2023-04-05T22:27:44.523Z,100101.88
2023-04-05T22:30:12.118Z,100103.16
2023-04-05T22:32:39.210Z,100093.72
2023-04-05T22:35:06.888Z,100099.84
2023-04-05T22:37:36.427Z,100101.66
2023-04-05T22:40:06.042Z,100098.84
2023-04-05T22:42:32.993Z,100101.34
2023-04-05T22:45:00.078Z,100099.50
2023-04-05T22:47:27.155Z,100098.56
2023-04-05T22:49:54.232Z,100092.28
2023-04-05T22:52:21.401Z,100101.03
2023-04-05T22:54:48.443Z,100098.22
2023-04-05T22:57:15.704Z,100094.44
2023-04-05T22:59:43.008Z,100090.66
2023-04-05T23:02:12.138Z,100096.63
2023-04-05T23:04:39.159Z,100096.63
2023-04-05T23:07:06.165Z,100093.00
2023-04-05T23:09:33.264Z,100090.34
2023-04-05T23:12:00.258Z,100086.72
2023-04-05T23:14:27.363Z,100095.63
2023-04-05T23:16:54.318Z,100085.88
2023-04-05T23:19:21.461Z,100092.88
2023-04-05T23:21:49.018Z,100090.06
2023-04-05T23:24:16.067Z,100081.41
2023-04-05T23:26:43.004Z,100083.09
2023-04-05T23:29:10.110Z,100076.97
2023-04-05T23:31:37.225Z,100075.16
2023-04-05T23:34:04.232Z,100078.09
2023-04-05T23:36:31.201Z,100084.22
2023-04-05T23:39:00.001Z,100073.78
2023-04-05T23:41:27.156Z,100078.41
2023-04-05T23:43:54.126Z,100079.53
2023-04-05T23:46:22.038Z,100077.06
2023-04-05T23:48:49.170Z,100071.91
2023-04-05T23:51:16.191Z,100077.38
2023-04-05T23:53:43.189Z,100072.38
2023-04-05T23:56:10.285Z,100072.22
2023-04-05T23:58:37.270Z,100068.06
